Time;durP1;ratioP1;P1;durP2;ratioP2;P2;SDS_P1;SDS_P2;PMS_P1;PMS_P2;Temp;Humidity;BMP_temperature;BMP_pressure;BME280_temperature;BME280_humidity;BME280_pressure;Samples;Min_cycle;Max_cycle;Signal;HPM_P1;HPM_P2
2022/10/01 00:02:18;;;;;;;7.67;6.87;;;;;;;-145.23;100.00;58621.06;4961483;28;20607;-56
2022/10/01 00:04:45;;;;;;;8.90;7.10;;;;;;;-145.23;100.00;58621.06;4954717;28;20241;-56
2022/10/01 00:07:14;;;;;;;9.40;7.73;;;;;;;-145.23;100.00;58621.06;4958001;28;20326;-57
2022/10/01 00:09:43;;;;;;;7.10;6.50;;;;;;;-145.23;100.00;58621.06;4955081;28;20234;-56
2022/10/01 00:12:10;;;;;;;10.03;7.20;;;;;;;-145.23;100.00;58621.06;4960101;28;20327;-56
2022/10/01 00:14:38;;;;;;;6.90;6.10;;;;;;;-145.23;100.00;58621.06;4964148;28;20785;-55
2022/10/01 00:17:05;;;;;;;7.63;6.83;;;;;;;-145.23;100.00;58621.06;4964725;28;20317;-55
2022/10/01 00:19:32;;;;;;;6.93;6.23;;;;;;;-145.23;100.00;58621.06;4962242;28;20235;-55
2022/10/01 00:21:59;;;;;;;6.97;6.10;;;;;;;-145.23;100.00;58621.06;4960729;28;20334;-55
2022/10/01 00:24:26;;;;;;;9.07;7.00;;;;;;;-145.23;100.00;58621.06;4960045;28;20238;-55
2022/10/01 00:26:52;;;;;;;8.37;7.57;;;;;;;-145.23;100.00;58621.06;4958368;28;20325;-56
2022/10/01 00:29:19;;;;;;;7.40;6.57;;;;;;;-145.23;100.00;58621.06;4960009;28;20281;-55
2022/10/01 00:31:47;;;;;;;8.37;7.57;;;;;;;-145.23;100.00;58621.06;4958067;28;20754;-56
2022/10/01 00:34:14;;;;;;;8.07;7.33;;;;;;;-145.23;100.00;58621.06;4959212;28;20293;-56
2022/10/01 00:36:42;;;;;;;8.53;6.60;;;;;;;-145.23;100.00;58621.06;4962082;28;20239;-55
2022/10/01 00:39:10;;;;;;;7.87;7.07;;;;;;;-145.23;100.00;58621.06;4958641;28;20237;-55
2022/10/01 00:41:37;;;;;;;7.63;6.90;;;;;;;-145.23;100.00;58621.06;4946676;28;20227;-55
2022/10/01 00:44:30;;;;;;;8.23;7.53;;;;;;;-145.23;100.00;58621.06;4950783;28;20677;-55
2022/10/01 00:47:02;;;;;;;8.07;6.53;;;;;;;-145.23;100.00;58621.06;4955491;28;20235;-55
2022/10/01 00:49:30;;;;;;;9.10;7.37;;;;;;;-145.23;100.00;58621.06;4952481;28;20237;-55
2022/10/01 00:52:01;;;;;;;8.80;7.60;;;;;;;-145.23;100.00;58621.06;4960407;28;20249;-55
2022/10/01 00:54:32;;;;;;;8.63;7.83;;;;;;;-145.23;100.00;58621.06;4954650;28;20657;-56
2022/10/01 00:57:01;;;;;;;8.10;7.30;;;;;;;-145.23;100.00;58621.06;4957108;28;20241;-55
2022/10/01 00:59:30;;;;;;;8.07;6.97;;;;;;;-145.23;100.00;58621.06;4953645;28;20239;-55
2022/10/01 01:01:57;;;;;;;9.50;8.50;;;;;;;-145.23;100.00;58621.06;4949840;28;20805;-56
2022/10/01 01:04:24;;;;;;;8.07;7.17;;;;;;;-145.23;100.00;58621.06;4953737;28;20325;-55
2022/10/01 01:06:56;;;;;;;7.17;6.50;;;;;;;-145.23;100.00;58621.06;4956941;28;20263;-55
2022/10/01 01:09:26;;;;;;;8.03;7.27;;;;;;;-145.23;100.00;58621.06;4960805;28;20238;-55
2022/10/01 01:11:56;;;;;;;7.50;6.80;;;;;;;-145.23;100.00;58621.06;4966752;28;20824;-56
2022/10/01 01:14:28;;;;;;;7.90;7.20;;;;;;;-145.23;100.00;58621.06;4958413;28;20239;-55
2022/10/01 01:17:00;;;;;;;8.03;7.00;;;;;;;-145.23;100.00;58621.06;4961955;28;20230;-56
2022/10/01 01:19:38;;;;;;;7.93;7.23;;;;;;;-145.23;100.00;58621.06;4965276;28;20446;-55
2022/10/01 01:22:06;;;;;;;7.43;6.77;;;;;;;-145.23;100.00;58621.06;4966326;28;20238;-55
2022/10/01 01:24:46;;;;;;;8.63;6.67;;;;;;;-145.23;100.00;58621.06;4955077;28;20844;-55
2022/10/01 01:27:26;;;;;;;7.30;6.57;;;;;;;-145.23;100.00;58621.06;4969020;28;20607;-55
2022/10/01 01:30:03;;;;;;;8.03;7.30;;;;;;;-145.23;100.00;58621.06;4961622;28;20309;-56
2022/10/01 01:32:35;;;;;;;8.20;7.40;;;;;;;-145.23;100.00;58621.06;4962630;28;20909;-55
2022/10/01 01:35:04;;;;;;;8.40;7.60;;;;;;;-145.23;100.00;58621.06;4956966;28;20254;-55
2022/10/01 01:37:34;;;;;;;8.43;7.63;;;;;;;-145.23;100.00;58621.06;4956796;28;20639;-54
2022/10/01 01:40:04;;;;;;;8.37;7.47;;;;;;;-145.23;100.00;58621.06;4957000;28;20242;-57
2022/10/01 01:42:35;;;;;;;9.23;8.17;;;;;;;-145.23;100.00;58621.06;4958119;28;20250;-55
2022/10/01 01:45:08;;;;;;;9.10;7.43;;;;;;;-145.23;100.00;58621.06;4963284;28;20241;-56
2022/10/01 01:47:36;;;;;;;9.13;7.93;;;;;;;-145.23;100.00;58621.06;4962338;28;20235;-55
2022/10/01 01:50:04;;;;;;;8.47;7.67;;;;;;;-145.23;100.00;58621.06;4965157;28;20321;-55
2022/10/01 01:52:31;;;;;;;9.47;7.53;;;;;;;-145.23;100.00;58621.06;4963866;28;20230;-55
2022/10/01 01:55:04;;;;;;;8.13;7.33;;;;;;;-145.23;100.00;58621.06;4959726;28;20266;-55
2022/10/01 01:57:32;;;;;;;8.60;7.80;;;;;;;-145.23;100.00;58621.06;4961165;28;20242;-55
2022/10/01 02:00:01;;;;;;;10.13;8.23;;;;;;;-145.23;100.00;58621.06;4968002;28;20230;-55
2022/10/01 02:02:31;;;;;;;7.97;7.17;;;;;;;-145.23;100.00;58621.06;4950718;28;20346;-55
2022/10/01 02:05:01;;;;;;;9.17;7.33;;;;;;;-145.23;100.00;58621.06;4963434;28;20242;-55
2022/10/01 02:07:51;;;;;;;9.17;8.27;;;;;;;-145.23;100.00;58621.06;4963948;28;20727;-55
2022/10/01 02:10:30;;;;;;;7.73;7.03;;;;;;;-145.23;100.00;58621.06;4954928;28;20717;-55
2022/10/01 02:13:08;;;;;;;8.30;7.60;;;;;;;-145.23;100.00;58621.06;4964412;28;20321;-56
2022/10/01 02:15:41;;;;;;;10.33;7.47;;;;;;;-145.23;100.00;58621.06;4966517;28;20644;-55
2022/10/01 02:18:15;;;;;;;7.57;6.97;;;;;;;-145.23;100.00;58621.06;4964055;28;20282;-55
2022/10/01 02:20:46;;;;;;;8.57;7.53;;;;;;;-145.23;100.00;58621.06;4957215;28;20250;-56
2022/10/01 02:23:16;;;;;;;9.57;8.50;;;;;;;-145.23;100.00;58621.06;4962465;28;20227;-55
2022/10/01 02:25:48;;;;;;;8.37;7.57;;;;;;;-145.23;100.00;58621.06;4963521;28;20237;-55
2022/10/01 02:28:18;;;;;;;9.50;7.70;;;;;;;-145.23;100.00;58621.06;4958034;28;20310;-55
2022/10/01 02:30:45;;;;;;;8.37;7.57;;;;;;;-145.23;100.00;58621.06;4960946;28;20231;-55
2022/10/01 02:33:18;;;;;;;8.37;7.63;;;;;;;-145.23;100.00;58621.06;4954368;28;20249;-55
2022/10/01 02:35:46;;;;;;;8.67;7.67;;;;;;;-145.23;100.00;58621.06;4962727;28;20289;-56
2022/10/01 02:38:14;;;;;;;8.57;7.67;;;;;;;-145.23;100.00;58621.06;4951221;28;20246;-55
2022/10/01 02:40:43;;;;;;;8.50;7.73;;;;;;;-145.23;100.00;58621.06;4959801;28;20497;-55
2022/10/01 02:43:13;;;;;;;8.90;8.00;;;;;;;-145.23;100.00;58621.06;4953717;28;20239;-56
2022/10/01 02:45:41;;;;;;;8.60;7.80;;;;;;;-145.23;100.00;58621.06;4961578;28;20237;-55
2022/10/01 02:48:10;;;;;;;8.50;7.80;;;;;;;-145.23;100.00;58621.06;4961465;28;20230;-55
2022/10/01 02:50:43;;;;;;;7.80;7.03;;;;;;;-145.23;100.00;58621.06;4964824;28;20238;-56
2022/10/01 02:53:13;;;;;;;7.77;7.07;;;;;;;-145.23;100.00;58621.06;4959882;28;20266;-58
2022/10/01 02:55:41;;;;;;;9.70;8.23;;;;;;;-145.23;100.00;58621.06;4959629;28;20285;-55
2022/10/01 02:58:07;;;;;;;11.93;8.27;;;;;;;-145.23;100.00;58621.06;4949799;28;20285;-55
2022/10/01 03:00:35;;;;;;;9.00;8.10;;;;;;;-145.23;100.00;58621.06;4962975;28;20265;-55
2022/10/01 03:03:01;;;;;;;9.47;8.10;;;;;;;-145.23;100.00;58621.06;4962532;28;20238;-55
2022/10/01 03:05:28;;;;;;;8.37;7.57;;;;;;;-145.23;100.00;58621.06;4954725;28;20241;-55
2022/10/01 03:07:57;;;;;;;9.53;8.47;;;;;;;-145.23;100.00;58621.06;4959205;28;20770;-55
2022/10/01 03:10:24;;;;;;;9.33;8.43;;;;;;;-145.23;100.00;58621.06;4958712;28;20380;-55
2022/10/01 03:12:51;;;;;;;8.00;7.30;;;;;;;-145.23;100.00;58621.06;4961001;28;20820;-55
2022/10/01 03:15:19;;;;;;;9.23;7.93;;;;;;;-145.23;100.00;58621.06;4958125;28;20238;-55
2022/10/01 03:17:47;;;;;;;8.87;8.10;;;;;;;-145.23;100.00;58621.06;4961423;28;20857;-55
2022/10/01 03:20:17;;;;;;;8.80;7.33;;;;;;;-145.23;100.00;58621.06;4954370;28;20885;-56
2022/10/01 03:22:44;;;;;;;8.53;7.63;;;;;;;-145.23;100.00;58621.06;4961426;28;20822;-55
2022/10/01 03:25:13;;;;;;;8.10;7.40;;;;;;;-145.23;100.00;58621.06;4964524;28;20234;-56
2022/10/01 03:27:40;;;;;;;8.80;7.90;;;;;;;-145.23;100.00;58621.06;4960572;28;20250;-55
2022/10/01 03:30:08;;;;;;;12.13;8.53;;;;;;;-145.23;100.00;58621.06;4955924;28;20239;-55
2022/10/01 03:32:38;;;;;;;8.73;7.70;;;;;;;-145.23;100.00;58621.06;4961061;28;20238;-55
2022/10/01 03:35:06;;;;;;;9.57;8.30;;;;;;;-145.23;100.00;58621.06;4959302;28;20246;-55
2022/10/01 03:37:33;;;;;;;9.60;8.60;;;;;;;-145.23;100.00;58621.06;4965003;28;20231;-55
2022/10/01 03:39:59;;;;;;;7.80;7.10;;;;;;;-145.23;100.00;58621.06;4957239;28;20640;-55
2022/10/01 03:42:28;;;;;;;9.27;8.37;;;;;;;-145.23;100.00;58621.06;4955742;28;20733;-55
2022/10/01 03:44:55;;;;;;;8.60;7.80;;;;;;;-145.23;100.00;58621.06;4953555;28;20255;-55
2022/10/01 03:47:23;;;;;;;12.53;8.57;;;;;;;-145.23;100.00;58621.06;4962620;28;20536;-55
2022/10/01 03:49:50;;;;;;;9.60;7.97;;;;;;;-145.23;100.00;58621.06;4958665;28;20257;-55
2022/10/01 03:52:16;;;;;;;10.70;8.33;;;;;;;-145.23;100.00;58621.06;4956807;28;20743;-55
2022/10/01 03:54:43;;;;;;;8.67;7.77;;;;;;;-145.23;100.00;58621.06;4956693;28;20266;-55
2022/10/01 03:57:10;;;;;;;10.97;8.10;;;;;;;-145.23;100.00;58621.06;4953586;28;20666;-56
2022/10/01 03:59:38;;;;;;;10.00;7.97;;;;;;;-145.23;100.00;58621.06;4960074;28;20242;-55
2022/10/01 04:02:07;;;;;;;10.30;8.07;;;;;;;-145.23;100.00;58621.06;4958269;28;20258;-55
2022/10/01 04:04:34;;;;;;;10.03;8.23;;;;;;;-145.23;100.00;58621.06;4948233;28;20239;-55
2022/10/01 04:07:01;;;;;;;8.87;7.97;;;;;;;-145.23;100.00;58621.06;4963797;28;20322;-55
2022/10/01 04:09:28;;;;;;;9.13;7.80;;;;;;;-145.23;100.00;58621.06;4953075;28;20238;-55
2022/10/01 04:11:55;;;;;;;9.70;8.27;;;;;;;-145.23;100.00;58621.06;4959923;28;20242;-55
2022/10/01 04:14:22;;;;;;;9.47;7.63;;;;;;;-145.23;100.00;58621.06;4958151;28;20257;-56
2022/10/01 04:16:51;;;;;;;9.57;7.27;;;;;;;-145.23;100.00;58621.06;4954094;28;20310;-55
2022/10/01 04:19:19;;;;;;;8.03;7.33;;;;;;;-145.23;100.00;58621.06;4959664;28;20242;-56
2022/10/01 04:21:45;;;;;;;10.30;8.37;;;;;;;-145.23;100.00;58621.06;4960754;28;20608;-55
2022/10/01 04:24:13;;;;;;;9.43;8.63;;;;;;;-145.23;100.00;58621.06;4957773;28;20239;-55
2022/10/01 04:26:39;;;;;;;8.40;7.60;;;;;;;-145.23;100.00;58621.06;4964559;28;20231;-55
2022/10/01 04:29:06;;;;;;;8.80;7.90;;;;;;;-145.23;100.00;58621.06;4962847;28;20238;-55
2022/10/01 04:31:34;;;;;;;9.40;8.40;;;;;;;-145.23;100.00;58621.06;4962008;28;20230;-55
2022/10/01 04:34:02;;;;;;;9.63;7.80;;;;;;;-145.23;100.00;58621.06;4960383;28;20368;-55
2022/10/01 04:36:29;;;;;;;9.13;8.33;;;;;;;-145.23;100.00;58621.06;4947728;28;20230;-56
2022/10/01 04:38:57;;;;;;;8.63;7.83;;;;;;;-145.23;100.00;58621.06;4963568;28;20293;-55
2022/10/01 04:41:24;;;;;;;9.20;8.23;;;;;;;-145.23;100.00;58621.06;4963612;28;20238;-55
2022/10/01 04:43:51;;;;;;;8.60;7.07;;;;;;;-145.23;100.00;58621.06;4958773;28;20296;-55
2022/10/01 04:46:18;;;;;;;8.93;8.07;;;;;;;-145.23;100.00;58621.06;4959439;28;20290;-55
2022/10/01 04:48:49;;;;;;;9.60;8.63;;;;;;;-145.23;100.00;58621.06;4962795;28;20333;-55
2022/10/01 04:51:17;;;;;;;8.20;7.47;;;;;;;-145.23;100.00;58621.06;4960921;28;20609;-55
2022/10/01 04:53:44;;;;;;;8.83;7.93;;;;;;;-145.23;100.00;58621.06;4961609;28;20262;-55
2022/10/01 04:56:11;;;;;;;8.70;7.50;;;;;;;-145.23;100.00;58621.06;4965839;28;20286;-56
2022/10/01 04:58:38;;;;;;;7.63;6.93;;;;;;;-145.23;100.00;58621.06;4960913;28;20234;-55
2022/10/01 05:01:04;;;;;;;8.43;7.47;;;;;;;-145.23;100.00;58621.06;4966883;28;20235;-55
2022/10/01 05:03:32;;;;;;;8.37;7.63;;;;;;;-145.23;100.00;58621.06;4961406;28;20257;-55
2022/10/01 05:05:59;;;;;;;8.93;7.37;;;;;;;-145.23;100.00;58621.06;4965249;28;20261;-55
2022/10/01 05:08:27;;;;;;;14.90;7.60;;;;;;;-145.23;100.00;58621.06;4966104;28;20273;-55
2022/10/01 05:10:54;;;;;;;9.03;8.20;;;;;;;-145.23;100.00;58621.06;4960930;28;20227;-55
2022/10/01 05:13:21;;;;;;;8.27;7.43;;;;;;;-145.23;100.00;58621.06;4967324;28;20234;-55
2022/10/01 05:15:50;;;;;;;8.93;8.03;;;;;;;-145.23;100.00;58621.06;4968204;28;20241;-55
2022/10/01 05:18:17;;;;;;;7.57;6.73;;;;;;;-145.23;100.00;58621.06;4965796;28;20257;-55
2022/10/01 05:20:47;;;;;;;7.73;6.80;;;;;;;-145.23;100.00;58621.06;4959105;28;20234;-56
2022/10/01 05:23:14;;;;;;;8.63;7.70;;;;;;;-145.23;100.00;58621.06;4965175;28;20234;-54
2022/10/01 05:25:45;;;;;;;7.53;6.53;;;;;;;-145.23;100.00;58621.06;4960165;28;20253;-56
2022/10/01 05:28:12;;;;;;;7.73;7.03;;;;;;;-145.23;100.00;58621.06;4964929;28;20226;-55
2022/10/01 05:30:39;;;;;;;9.13;7.90;;;;;;;-145.23;100.00;58621.06;4967470;28;20239;-55
2022/10/01 05:33:06;;;;;;;7.43;6.67;;;;;;;-145.23;100.00;58621.06;4963904;28;20242;-55
2022/10/01 05:35:33;;;;;;;7.67;6.97;;;;;;;-145.23;100.00;58621.06;4966212;28;20320;-55
2022/10/01 05:38:01;;;;;;;8.10;7.30;;;;;;;-145.23;100.00;58621.06;4962444;28;20231;-55
2022/10/01 05:40:29;;;;;;;7.33;6.63;;;;;;;-145.23;100.00;58621.06;4957143;28;20293;-55
2022/10/01 05:42:58;;;;;;;7.67;6.97;;;;;;;-145.23;100.00;58621.06;4956169;28;20231;-57
2022/10/01 05:45:27;;;;;;;10.83;7.23;;;;;;;-145.23;100.00;58621.06;4965358;28;20227;-55
2022/10/01 05:47:58;;;;;;;9.63;8.00;;;;;;;-145.23;100.00;58621.06;4968251;28;20235;-55
2022/10/01 05:50:25;;;;;;;6.63;6.03;;;;;;;-145.23;100.00;58621.06;4964246;28;20245;-55
2022/10/01 05:52:53;;;;;;;7.13;6.53;;;;;;;-145.23;100.00;58621.06;4966788;28;20249;-55
2022/10/01 05:55:20;;;;;;;6.97;6.37;;;;;;;-145.23;100.00;58621.06;4951256;28;20240;-55
2022/10/01 05:57:54;;;;;;;7.80;6.97;;;;;;;-145.23;100.00;58621.06;4960704;28;20612;-55
2022/10/01 06:00:22;;;;;;;9.73;6.97;;;;;;;-145.23;100.00;58621.06;4955719;28;20237;-55
2022/10/01 06:02:53;;;;;;;7.20;6.50;;;;;;;-145.23;100.00;58621.06;4961128;28;20264;-55
2022/10/01 06:05:20;;;;;;;8.37;7.60;;;;;;;-145.23;100.00;58621.06;4959046;28;20231;-55
2022/10/01 06:07:47;;;;;;;7.80;7.00;;;;;;;-145.23;100.00;58621.06;4957115;28;20289;-55
2022/10/01 06:10:13;;;;;;;7.60;6.90;;;;;;;-145.23;100.00;58621.06;4959288;28;20238;-55
2022/10/01 06:12:42;;;;;;;7.60;6.10;;;;;;;-145.23;100.00;58621.06;4957255;28;20239;-55
2022/10/01 06:15:09;;;;;;;6.97;6.03;;;;;;;-145.23;100.00;58621.06;4960724;28;20226;-55
2022/10/01 06:17:42;;;;;;;6.87;6.13;;;;;;;-145.23;100.00;58621.06;4958970;28;20227;-55
2022/10/01 06:20:10;;;;;;;6.90;6.13;;;;;;;-145.23;100.00;58621.06;4958635;28;20250;-55
2022/10/01 06:22:37;;;;;;;7.33;6.63;;;;;;;-145.23;100.00;58621.06;4964970;28;20317;-55
2022/10/01 06:25:04;;;;;;;7.67;6.90;;;;;;;-145.23;100.00;58621.06;4966322;28;20308;-54
2022/10/01 06:27:31;;;;;;;6.27;5.67;;;;;;;-145.23;100.00;58621.06;4961252;28;20242;-54
2022/10/01 06:29:58;;;;;;;7.63;6.43;;;;;;;-145.23;100.00;58621.06;4966502;28;20333;-54
2022/10/01 06:32:25;;;;;;;8.97;6.80;;;;;;;-145.23;100.00;58621.06;4959651;28;20227;-54
2022/10/01 06:34:53;;;;;;;6.87;6.27;;;;;;;-145.23;100.00;58621.06;4961870;28;20241;-54
2022/10/01 06:37:20;;;;;;;7.00;6.40;;;;;;;-145.23;100.00;58621.06;4956117;28;20364;-55
2022/10/01 06:39:47;;;;;;;7.10;6.50;;;;;;;-145.23;100.00;58621.06;4956013;28;20282;-55
2022/10/01 06:42:14;;;;;;;7.23;6.53;;;;;;;-145.23;100.00;58621.06;4954868;28;20568;-55
2022/10/01 06:44:41;;;;;;;7.43;6.57;;;;;;;-145.23;100.00;58621.06;4950894;28;20240;-55
2022/10/01 06:47:08;;;;;;;6.93;6.27;;;;;;;-145.23;100.00;58621.06;4963160;28;20272;-55
2022/10/01 06:49:35;;;;;;;6.73;6.03;;;;;;;-145.23;100.00;58621.06;4957388;28;20258;-55
2022/10/01 06:54:47;;;;;;;8.67;7.27;;;;;;;-145.23;100.00;58621.06;4961709;28;20283;-55
2022/10/01 06:57:14;;;;;;;8.40;6.70;;;;;;;-145.23;100.00;58621.06;4961132;28;20235;-55
2022/10/01 06:59:41;;;;;;;9.60;7.23;;;;;;;-145.23;100.00;58621.06;4957226;28;20329;-55
2022/10/01 07:02:15;;;;;;;7.30;6.60;;;;;;;-145.23;100.00;58621.06;4953957;28;20321;-56
2022/10/01 07:04:41;;;;;;;6.97;6.27;;;;;;;-145.23;100.00;58621.06;4959187;28;20243;-56
2022/10/01 07:07:09;;;;;;;7.57;6.80;;;;;;;-145.23;100.00;58621.06;4963927;28;20713;-55
2022/10/01 07:09:36;;;;;;;7.60;6.77;;;;;;;-145.23;100.00;58621.06;4956692;28;20259;-56
2022/10/01 07:12:04;;;;;;;8.83;6.27;;;;;;;-145.23;100.00;58621.06;4962377;28;20238;-56
2022/10/01 07:14:30;;;;;;;7.43;6.73;;;;;;;-145.23;100.00;58621.06;4950723;28;20314;-57
2022/10/01 07:16:57;;;;;;;6.30;5.70;;;;;;;-145.23;100.00;58621.06;4963784;28;20238;-55
2022/10/01 07:19:24;;;;;;;8.00;7.00;;;;;;;-145.23;100.00;58621.06;4952407;28;20276;-56
2022/10/01 07:21:51;;;;;;;7.23;6.53;;;;;;;-145.23;100.00;58621.06;4960245;28;20717;-56
2022/10/01 07:24:20;;;;;;;8.23;7.37;;;;;;;-145.23;100.00;58621.06;4958842;28;20734;-56
2022/10/01 07:26:49;;;;;;;10.10;7.20;;;;;;;-145.23;100.00;58621.06;4960115;28;20590;-56
2022/10/01 07:29:16;;;;;;;7.93;6.87;;;;;;;-145.23;100.00;58621.06;4961777;28;20235;-55
2022/10/01 07:31:43;;;;;;;8.57;7.70;;;;;;;-145.23;100.00;58621.06;4959486;28;20227;-55
2022/10/01 07:34:10;;;;;;;7.93;7.13;;;;;;;-145.23;100.00;58621.06;4955045;28;20725;-56
2022/10/01 07:36:37;;;;;;;8.40;7.10;;;;;;;-145.23;100.00;58621.06;4962446;28;20680;-55
2022/10/01 07:39:04;;;;;;;7.33;6.67;;;;;;;-145.23;100.00;58621.06;4949538;28;20243;-56
2022/10/01 07:41:32;;;;;;;7.13;6.40;;;;;;;-145.23;100.00;58621.06;4960861;28;20295;-55
2022/10/01 07:43:59;;;;;;;8.70;6.63;;;;;;;-145.23;100.00;58621.06;4964325;28;20262;-55
2022/10/01 07:46:26;;;;;;;7.30;6.60;;;;;;;-145.23;100.00;58621.06;4963243;28;20269;-56
2022/10/01 07:48:52;;;;;;;8.27;7.40;;;;;;;-145.23;100.00;58621.06;4962637;28;20266;-56
2022/10/01 07:51:19;;;;;;;7.37;6.57;;;;;;;-145.23;100.00;58621.06;4960708;28;20239;-56
2022/10/01 07:53:46;;;;;;;7.13;6.40;;;;;;;-145.23;100.00;58621.06;4958992;28;20334;-56
2022/10/01 07:56:13;;;;;;;7.60;6.77;;;;;;;-145.23;100.00;58621.06;4962592;28;20281;-56
2022/10/01 07:58:42;;;;;;;6.73;6.07;;;;;;;-145.23;100.00;58621.06;4957345;28;20241;-56
2022/10/01 08:01:09;;;;;;;7.63;6.87;;;;;;;-145.23;100.00;58621.06;4958721;28;20246;-57
2022/10/01 08:03:35;;;;;;;7.17;6.47;;;;;;;-145.23;100.00;58621.06;4960613;28;20890;-56
2022/10/01 08:06:04;;;;;;;8.93;6.40;;;;;;;-145.23;100.00;58621.06;4964124;28;20286;-56
2022/10/01 08:08:31;;;;;;;8.03;6.50;;;;;;;-145.23;100.00;58621.06;4950970;28;20321;-56
2022/10/01 08:10:58;;;;;;;7.17;6.50;;;;;;;-145.23;100.00;58621.06;4955645;28;20269;-56
2022/10/01 08:13:25;;;;;;;7.27;6.57;;;;;;;-145.23;100.00;58621.06;4952827;28;20786;-56
2022/10/01 08:15:53;;;;;;;7.70;7.00;;;;;;;-145.23;100.00;58621.06;4960427;28;20234;-56
2022/10/01 08:18:20;;;;;;;7.10;6.50;;;;;;;-145.23;100.00;58621.06;4951962;28;20261;-56
2022/10/01 08:20:47;;;;;;;6.57;5.87;;;;;;;-145.23;100.00;58621.06;4956192;28;20244;-56
2022/10/01 08:23:16;;;;;;;6.67;6.07;;;;;;;-145.23;100.00;58621.06;4963368;28;20240;-56
2022/10/01 08:25:43;;;;;;;7.17;6.47;;;;;;;-145.23;100.00;58621.06;4961768;28;20322;-56
2022/10/01 08:28:11;;;;;;;7.43;6.70;;;;;;;-145.23;100.00;58621.06;4959981;28;20647;-56
2022/10/01 08:30:39;;;;;;;7.53;6.80;;;;;;;-145.23;100.00;58621.06;4964537;28;20238;-56
2022/10/01 08:33:08;;;;;;;7.07;6.47;;;;;;;-145.23;100.00;58621.06;4962706;28;20679;-56
2022/10/01 08:35:35;;;;;;;6.97;6.30;;;;;;;-145.23;100.00;58621.06;4958169;28;20318;-56
2022/10/01 08:38:02;;;;;;;8.73;5.63;;;;;;;-145.23;100.00;58621.06;4963744;28;20309;-56
2022/10/01 08:40:29;;;;;;;5.97;5.47;;;;;;;-145.23;100.00;58621.06;4957234;28;20329;-56
2022/10/01 08:42:58;;;;;;;7.40;6.37;;;;;;;-145.23;100.00;58621.06;4957948;28;20318;-56
2022/10/01 08:45:27;;;;;;;6.57;5.97;;;;;;;-145.23;100.00;58621.06;4963367;28;20752;-56
2022/10/01 08:48:00;;;;;;;7.60;5.87;;;;;;;-145.23;100.00;58621.06;4961372;28;20712;-56
2022/10/01 08:50:40;;;;;;;6.97;5.67;;;;;;;-145.23;100.00;58621.06;4962575;28;20592;-56
2022/10/01 08:53:14;;;;;;;5.90;5.33;;;;;;;-145.23;100.00;58621.06;4948961;28;20731;-56
2022/10/01 08:55:41;;;;;;;6.00;5.50;;;;;;;-145.23;100.00;58621.06;4958217;28;20237;-56
2022/10/01 08:58:11;;;;;;;5.70;4.67;;;;;;;-145.23;100.00;58621.06;4955259;28;20744;-57
2022/10/01 09:00:40;;;;;;;5.40;5.00;;;;;;;-145.23;100.00;58621.06;4956312;28;20616;-56
2022/10/01 09:03:11;;;;;;;6.37;5.67;;;;;;;-145.23;100.00;58621.06;4947643;28;20239;-55
2022/10/01 09:05:47;;;;;;;6.17;4.97;;;;;;;-145.23;100.00;58621.06;4953221;28;20246;-55
2022/10/01 09:08:22;;;;;;;5.37;4.30;;;;;;;-145.23;100.00;58621.06;4956535;28;20245;-58
2022/10/01 09:10:53;;;;;;;6.00;5.40;;;;;;;-145.23;100.00;58621.06;4953546;28;20235;-56
2022/10/01 09:13:39;;;;;;;5.83;5.20;;;;;;;-145.23;100.00;58621.06;4958413;28;20239;-56
2022/10/01 09:16:12;;;;;;;6.00;4.65;;;;;;;-145.23;100.00;58621.06;4955557;28;20266;-55
2022/10/01 09:18:44;;;;;;;5.20;4.10;;;;;;;-145.23;100.00;58621.06;4957705;28;20866;-55
2022/10/01 09:21:19;;;;;;;5.70;4.83;;;;;;;-145.23;100.00;58621.06;4949507;28;20266;-57
2022/10/01 09:23:56;;;;;;;5.23;4.73;;;;;;;-145.23;100.00;58621.06;4956199;28;20254;-55
2022/10/01 09:26:23;;;;;;;5.03;4.53;;;;;;;-145.23;100.00;58621.06;4952183;28;20230;-55
2022/10/01 09:28:51;;;;;;;6.07;4.13;;;;;;;-145.23;100.00;58621.06;4954253;28;20840;-57
2022/10/01 09:31:21;;;;;;;5.27;4.17;;;;;;;-145.23;100.00;58621.06;4959910;28;20227;-56
2022/10/01 09:33:51;;;;;;;4.63;4.22;;;;;;;-145.23;100.00;58621.06;4961933;28;20240;-57
2022/10/01 09:36:25;;;;;;;4.47;4.07;;;;;;;-145.23;100.00;58621.06;4957676;28;22151;-57
2022/10/01 09:38:59;;;;;;;6.60;4.05;;;;;;;-145.23;100.00;58621.06;4957954;28;20238;-56
2022/10/01 09:41:25;;;;;;;7.85;4.00;;;;;;;-145.23;100.00;58621.06;4958806;28;20232;-56
2022/10/01 09:43:52;;;;;;;3.95;3.65;;;;;;;-145.23;100.00;58621.06;4961036;28;20716;-56
2022/10/01 09:46:18;;;;;;;4.50;4.07;;;;;;;-145.23;100.00;58621.06;4955265;28;20605;-57
2022/10/01 09:48:56;;;;;;;4.03;3.63;;;;;;;-145.23;100.00;58621.06;4967901;28;20824;-56
2022/10/01 09:51:30;;;;;;;4.77;4.33;;;;;;;-145.23;100.00;58621.06;4952776;28;20246;-57
2022/10/01 09:54:09;;;;;;;3.78;3.35;;;;;;;-145.23;100.00;58621.06;4959939;28;20333;-57
2022/10/01 09:56:41;;;;;;;7.20;4.07;;;;;;;-145.23;100.00;58621.06;4954197;28;20341;-56
2022/10/01 09:59:11;;;;;;;3.88;3.05;;;;;;;-145.23;100.00;58621.06;4961922;28;20226;-56
2022/10/01 10:01:43;;;;;;;3.33;3.03;;;;;;;-145.23;100.00;58621.06;4962959;28;20241;-57
2022/10/01 10:04:10;;;;;;;3.77;3.47;;;;;;;-145.23;100.00;58621.06;4960499;28;20243;-56
2022/10/01 10:06:38;;;;;;;4.53;3.50;;;;;;;-145.23;100.00;58621.06;4955231;28;20242;-56
2022/10/01 10:09:14;;;;;;;3.53;3.23;;;;;;;-145.23;100.00;58621.06;4953370;28;20237;-57
2022/10/01 10:11:41;;;;;;;3.57;3.27;;;;;;;-145.23;100.00;58621.06;4954678;28;20226;-55
2022/10/01 10:14:18;;;;;;;3.67;3.37;;;;;;;-145.23;100.00;58621.06;4956517;28;20661;-55
2022/10/01 10:16:46;;;;;;;3.70;3.10;;;;;;;-145.23;100.00;58621.06;4957359;28;20226;-55
2022/10/01 10:19:18;;;;;;;3.90;3.60;;;;;;;-145.23;100.00;58621.06;4954416;28;20250;-58
2022/10/01 10:21:52;;;;;;;3.87;3.57;;;;;;;-145.23;100.00;58621.06;4957496;28;20230;-56
2022/10/01 10:24:24;;;;;;;4.20;3.43;;;;;;;-145.23;100.00;58621.06;4955181;28;20788;-57
2022/10/01 10:26:53;;;;;;;4.17;3.80;;;;;;;-145.23;100.00;58621.06;4955364;28;20254;-57
2022/10/01 10:29:25;;;;;;;7.63;4.80;;;;;;;-145.23;100.00;58621.06;4952545;28;20239;-57
2022/10/01 10:31:54;;;;;;;6.20;5.70;;;;;;;-145.23;100.00;58621.06;4958480;28;20727;-56
2022/10/01 10:34:21;;;;;;;6.83;6.17;;;;;;;-145.23;100.00;58621.06;4963761;28;20247;-57
2022/10/01 10:36:48;;;;;;;5.67;5.17;;;;;;;-145.23;100.00;58621.06;4958001;28;20250;-58
2022/10/01 10:39:19;;;;;;;7.17;6.47;;;;;;;-145.23;100.00;58621.06;4960571;28;20656;-57
2022/10/01 10:41:47;;;;;;;7.10;6.40;;;;;;;-145.23;100.00;58621.06;4950062;28;20231;-59
2022/10/01 10:44:15;;;;;;;7.70;7.00;;;;;;;-145.23;100.00;58621.06;4954715;28;20247;-58
2022/10/01 10:46:43;;;;;;;6.67;5.97;;;;;;;-145.23;100.00;58621.06;4956357;28;20312;-58
2022/10/01 10:49:17;;;;;;;7.87;7.17;;;;;;;-145.23;100.00;58621.06;4952356;28;20238;-58
2022/10/01 10:51:47;;;;;;;8.60;7.67;;;;;;;-145.23;100.00;58621.06;4953148;28;20271;-58
2022/10/01 10:54:25;;;;;;;8.30;7.37;;;;;;;-145.23;100.00;58621.06;4960745;28;20242;-63
2022/10/01 10:56:59;;;;;;;10.97;7.50;;;;;;;-145.23;100.00;58621.06;4953516;28;20231;-61
2022/10/01 10:59:26;;;;;;;8.53;7.30;;;;;;;-145.23;100.00;58621.06;4948388;28;20325;-61
2022/10/01 11:01:53;;;;;;;9.47;7.57;;;;;;;-145.23;100.00;58621.06;4958564;28;20230;-61
2022/10/01 11:04:26;;;;;;;12.90;7.30;;;;;;;-145.23;100.00;58621.06;4959994;28;20254;-62
2022/10/01 11:06:55;;;;;;;11.03;8.03;;;;;;;-145.23;100.00;58621.06;4951726;28;20231;-62
2022/10/01 11:09:26;;;;;;;9.33;8.43;;;;;;;-145.23;100.00;58621.06;4953561;28;20234;-62
2022/10/01 11:11:56;;;;;;;9.97;8.97;;;;;;;-145.23;100.00;58621.06;4956184;28;20235;-61
2022/10/01 11:14:35;;;;;;;11.10;9.53;;;;;;;-145.23;100.00;58621.06;4956459;28;20242;-61
2022/10/01 11:17:19;;;;;;;9.07;8.17;;;;;;;-145.23;100.00;58621.06;4959867;28;20232;-60
2022/10/01 11:19:59;;;;;;;10.43;8.70;;;;;;;-145.23;100.00;58621.06;4956823;28;20329;-60
2022/10/01 11:22:39;;;;;;;9.67;8.67;;;;;;;-145.23;100.00;58621.06;4954157;28;20238;-59